< < Back
Terminal Aerodrome Forecast


Current Version              Previous Versions:   1  2  3  4  5  6  7  8  9  

Terminal Aerodrome Forecast

892
FTUS44 KMRX 221739
TAFTYS
TAF
KTYS 221739Z 2218/2318 16005KT P6SM SCT040 BKN250
     FM230900 VRB03KT P6SM BKN040 OVC080
     FM231500 06005KT 4SM -SHRA BR BKN025 BKN060=

Latest METAR

455
SAUS80 KWBC 230000
MTRTYS
METAR KTYS 222353Z 10003KT 10SM CLR 11/M02 A3021 RMK AO2 SLP233
T01061022 10150 20106 56010


USA.gov is the U.S. government's official web portal to all federal, state and local government web resources and services.